sensor_id;sensor_type;location;lat;lon;timestamp;temperature;humidity
16392;DHT22;8305;-33.882;151.134;2022-10-30T00:02:18;23.40;99.90
16392;DHT22;8305;-33.882;151.134;2022-10-30T00:04:48;23.40;99.90
16392;DHT22;8305;-33.882;151.134;2022-10-30T00:07:19;23.50;99.90
16392;DHT22;8305;-33.882;151.134;2022-10-30T00:09:50;23.60;99.90
16392;DHT22;8305;-33.882;151.134;2022-10-30T00:12:21;23.70;99.90
16392;DHT22;8305;-33.882;151.134;2022-10-30T00:14:53;23.70;99.90
16392;DHT22;8305;-33.882;151.134;2022-10-30T00:17:24;23.70;99.90
16392;DHT22;8305;-33.882;151.134;2022-10-30T00:19:55;23.80;99.90
16392;DHT22;8305;-33.882;151.134;2022-10-30T00:22:26;24.00;99.90
16392;DHT22;8305;-33.882;151.134;2022-10-30T00:24:57;24.00;99.90
16392;DHT22;8305;-33.882;151.134;2022-10-30T00:27:28;24.20;99.90
16392;DHT22;8305;-33.882;151.134;2022-10-30T00:30:00;24.20;99.90
16392;DHT22;8305;-33.882;151.134;2022-10-30T00:32:31;24.20;99.90
16392;DHT22;8305;-33.882;151.134;2022-10-30T00:35:02;24.10;99.90
16392;DHT22;8305;-33.882;151.134;2022-10-30T00:37:33;24.10;99.90
16392;DHT22;8305;-33.882;151.134;2022-10-30T00:40:05;24.20;99.90
16392;DHT22;8305;-33.882;151.134;2022-10-30T00:42:36;24.10;99.90
16392;DHT22;8305;-33.882;151.134;2022-10-30T00:45:11;23.90;99.90
16392;DHT22;8305;-33.882;151.134;2022-10-30T00:47:49;23.80;99.90
16392;DHT22;8305;-33.882;151.134;2022-10-30T00:50:24;24.00;99.90
16392;DHT22;8305;-33.882;151.134;2022-10-30T00:52:59;24.20;99.90
16392;DHT22;8305;-33.882;151.134;2022-10-30T00:55:33;24.30;99.90
16392;DHT22;8305;-33.882;151.134;2022-10-30T00:58:09;24.40;99.90
16392;DHT22;8305;-33.882;151.134;2022-10-30T01:00:47;24.40;99.90
16392;DHT22;8305;-33.882;151.134;2022-10-30T01:03:21;24.60;99.90
16392;DHT22;8305;-33.882;151.134;2022-10-30T01:05:54;24.70;99.90
16392;DHT22;8305;-33.882;151.134;2022-10-30T01:08:26;24.50;99.90
16392;DHT22;8305;-33.882;151.134;2022-10-30T01:10:58;24.60;99.90
16392;DHT22;8305;-33.882;151.134;2022-10-30T01:13:31;24.50;99.90
16392;DHT22;8305;-33.882;151.134;2022-10-30T01:16:21;24.40;99.90
16392;DHT22;8305;-33.882;151.134;2022-10-30T01:18:58;24.40;99.90
16392;DHT22;8305;-33.882;151.134;2022-10-30T01:21:41;24.60;99.90
16392;DHT22;8305;-33.882;151.134;2022-10-30T01:24:24;24.60;99.90
16392;DHT22;8305;-33.882;151.134;2022-10-30T01:27:03;24.70;99.90
16392;DHT22;8305;-33.882;151.134;2022-10-30T01:29:47;24.70;99.90
16392;DHT22;8305;-33.882;151.134;2022-10-30T01:32:35;24.60;99.90
16392;DHT22;8305;-33.882;151.134;2022-10-30T01:35:12;24.70;99.90
16392;DHT22;8305;-33.882;151.134;2022-10-30T01:37:49;24.60;99.90
16392;DHT22;8305;-33.882;151.134;2022-10-30T01:40:22;24.60;99.90
16392;DHT22;8305;-33.882;151.134;2022-10-30T01:42:53;24.60;99.90
16392;DHT22;8305;-33.882;151.134;2022-10-30T01:45:36;24.60;99.90
16392;DHT22;8305;-33.882;151.134;2022-10-30T01:51:24;24.60;99.90
16392;DHT22;8305;-33.882;151.134;2022-10-30T01:54:06;24.60;99.90
16392;DHT22;8305;-33.882;151.134;2022-10-30T01:56:42;24.60;99.90
16392;DHT22;8305;-33.882;151.134;2022-10-30T01:59:17;24.40;99.90
16392;DHT22;8305;-33.882;151.134;2022-10-30T02:01:50;24.10;99.90
16392;DHT22;8305;-33.882;151.134;2022-10-30T02:04:23;24.10;99.90
16392;DHT22;8305;-33.882;151.134;2022-10-30T02:06:54;24.10;99.90
16392;DHT22;8305;-33.882;151.134;2022-10-30T02:09:25;24.10;99.90
16392;DHT22;8305;-33.882;151.134;2022-10-30T02:11:56;23.80;99.90
16392;DHT22;8305;-33.882;151.134;2022-10-30T02:14:30;23.70;99.90
16392;DHT22;8305;-33.882;151.134;2022-10-30T02:17:04;23.60;99.90
16392;DHT22;8305;-33.882;151.134;2022-10-30T02:19:37;23.40;99.90
16392;DHT22;8305;-33.882;151.134;2022-10-30T02:22:10;23.30;99.90
16392;DHT22;8305;-33.882;151.134;2022-10-30T02:24:41;23.30;99.90
16392;DHT22;8305;-33.882;151.134;2022-10-30T02:27:11;23.20;99.90
16392;DHT22;8305;-33.882;151.134;2022-10-30T02:29:42;22.90;99.90
16392;DHT22;8305;-33.882;151.134;2022-10-30T02:32:13;23.00;99.90
16392;DHT22;8305;-33.882;151.134;2022-10-30T02:34:44;23.00;99.90
16392;DHT22;8305;-33.882;151.134;2022-10-30T02:37:16;22.80;99.90
16392;DHT22;8305;-33.882;151.134;2022-10-30T02:39:47;22.80;99.90
16392;DHT22;8305;-33.882;151.134;2022-10-30T02:42:18;22.70;99.90
16392;DHT22;8305;-33.882;151.134;2022-10-30T02:44:49;22.80;99.90
16392;DHT22;8305;-33.882;151.134;2022-10-30T02:47:20;23.00;99.90
16392;DHT22;8305;-33.882;151.134;2022-10-30T02:49:51;23.30;99.90
16392;DHT22;8305;-33.882;151.134;2022-10-30T02:52:24;23.10;99.90
16392;DHT22;8305;-33.882;151.134;2022-10-30T02:54:54;23.00;99.90
16392;DHT22;8305;-33.882;151.134;2022-10-30T02:57:25;22.80;99.90
16392;DHT22;8305;-33.882;151.134;2022-10-30T02:59:56;22.70;99.90
16392;DHT22;8305;-33.882;151.134;2022-10-30T03:02:26;22.70;99.90
16392;DHT22;8305;-33.882;151.134;2022-10-30T03:04:57;22.40;99.90
16392;DHT22;8305;-33.882;151.134;2022-10-30T03:07:30;22.30;99.90
16392;DHT22;8305;-33.882;151.134;2022-10-30T03:10:00;22.20;99.90
16392;DHT22;8305;-33.882;151.134;2022-10-30T03:12:31;22.30;99.90
16392;DHT22;8305;-33.882;151.134;2022-10-30T03:15:02;22.20;99.90
16392;DHT22;8305;-33.882;151.134;2022-10-30T03:17:33;22.40;99.90
16392;DHT22;8305;-33.882;151.134;2022-10-30T03:20:04;22.60;99.90
16392;DHT22;8305;-33.882;151.134;2022-10-30T03:22:37;22.40;99.90
16392;DHT22;8305;-33.882;151.134;2022-10-30T03:25:08;22.40;99.90
16392;DHT22;8305;-33.882;151.134;2022-10-30T03:27:39;22.50;99.90
16392;DHT22;8305;-33.882;151.134;2022-10-30T03:30:10;22.50;99.90
16392;DHT22;8305;-33.882;151.134;2022-10-30T03:32:41;22.60;99.90
16392;DHT22;8305;-33.882;151.134;2022-10-30T03:35:12;22.60;99.90
16392;DHT22;8305;-33.882;151.134;2022-10-30T03:37:44;22.60;99.90
16392;DHT22;8305;-33.882;151.134;2022-10-30T03:40:15;22.60;99.90
16392;DHT22;8305;-33.882;151.134;2022-10-30T03:42:46;22.60;99.90
16392;DHT22;8305;-33.882;151.134;2022-10-30T03:45:17;22.50;99.90
16392;DHT22;8305;-33.882;151.134;2022-10-30T03:47:47;22.30;99.90
16392;DHT22;8305;-33.882;151.134;2022-10-30T03:50:18;22.20;99.90
16392;DHT22;8305;-33.882;151.134;2022-10-30T03:52:52;22.00;99.90
16392;DHT22;8305;-33.882;151.134;2022-10-30T03:55:23;21.90;99.90
16392;DHT22;8305;-33.882;151.134;2022-10-30T03:57:54;22.00;99.90
16392;DHT22;8305;-33.882;151.134;2022-10-30T04:00:25;22.10;99.90
16392;DHT22;8305;-33.882;151.134;2022-10-30T04:02:56;22.00;99.90
16392;DHT22;8305;-33.882;151.134;2022-10-30T04:05:28;22.00;99.90
16392;DHT22;8305;-33.882;151.134;2022-10-30T04:08:02;21.80;99.90
16392;DHT22;8305;-33.882;151.134;2022-10-30T04:10:34;21.80;99.90
16392;DHT22;8305;-33.882;151.134;2022-10-30T04:13:06;21.90;99.90
16392;DHT22;8305;-33.882;151.134;2022-10-30T04:15:37;21.90;99.90
16392;DHT22;8305;-33.882;151.134;2022-10-30T04:18:09;21.80;99.90
16392;DHT22;8305;-33.882;151.134;2022-10-30T04:20:40;21.70;99.90
16392;DHT22;8305;-33.882;151.134;2022-10-30T04:23:14;21.70;99.90
16392;DHT22;8305;-33.882;151.134;2022-10-30T04:25:45;21.60;99.90
16392;DHT22;8305;-33.882;151.134;2022-10-30T04:28:16;21.50;99.90
16392;DHT22;8305;-33.882;151.134;2022-10-30T04:30:48;21.50;99.90
16392;DHT22;8305;-33.882;151.134;2022-10-30T04:33:19;21.50;99.90
16392;DHT22;8305;-33.882;151.134;2022-10-30T04:35:49;21.30;99.90
16392;DHT22;8305;-33.882;151.134;2022-10-30T04:38:23;21.20;99.90
16392;DHT22;8305;-33.882;151.134;2022-10-30T04:40:54;21.20;99.90
16392;DHT22;8305;-33.882;151.134;2022-10-30T04:43:24;21.10;99.90
16392;DHT22;8305;-33.882;151.134;2022-10-30T04:45:55;21.10;99.90
16392;DHT22;8305;-33.882;151.134;2022-10-30T04:48:26;21.30;99.90
16392;DHT22;8305;-33.882;151.134;2022-10-30T04:50:58;21.40;99.90
16392;DHT22;8305;-33.882;151.134;2022-10-30T04:53:31;21.50;99.90
16392;DHT22;8305;-33.882;151.134;2022-10-30T04:56:02;21.50;99.90
16392;DHT22;8305;-33.882;151.134;2022-10-30T04:58:33;21.70;99.90
16392;DHT22;8305;-33.882;151.134;2022-10-30T05:01:04;21.70;99.90
16392;DHT22;8305;-33.882;151.134;2022-10-30T05:03:35;21.60;99.90
16392;DHT22;8305;-33.882;151.134;2022-10-30T05:06:12;21.60;99.90
16392;DHT22;8305;-33.882;151.134;2022-10-30T05:08:46;21.50;99.90
16392;DHT22;8305;-33.882;151.134;2022-10-30T05:11:17;21.50;99.90
16392;DHT22;8305;-33.882;151.134;2022-10-30T05:13:48;21.40;99.90
16392;DHT22;8305;-33.882;151.134;2022-10-30T05:16:19;21.10;99.90
16392;DHT22;8305;-33.882;151.134;2022-10-30T05:18:50;21.20;99.90
16392;DHT22;8305;-33.882;151.134;2022-10-30T05:21:20;21.20;99.90
16392;DHT22;8305;-33.882;151.134;2022-10-30T05:23:53;21.20;99.90
16392;DHT22;8305;-33.882;151.134;2022-10-30T05:26:24;21.20;99.90
16392;DHT22;8305;-33.882;151.134;2022-10-30T05:28:55;21.30;99.90
16392;DHT22;8305;-33.882;151.134;2022-10-30T05:31:25;21.20;99.90
16392;DHT22;8305;-33.882;151.134;2022-10-30T05:33:56;21.10;99.90
16392;DHT22;8305;-33.882;151.134;2022-10-30T05:36:27;21.20;99.90
16392;DHT22;8305;-33.882;151.134;2022-10-30T05:39:00;21.20;99.90
16392;DHT22;8305;-33.882;151.134;2022-10-30T05:41:30;21.20;99.90
16392;DHT22;8305;-33.882;151.134;2022-10-30T05:44:01;21.10;99.90
16392;DHT22;8305;-33.882;151.134;2022-10-30T05:46:32;21.10;99.90
16392;DHT22;8305;-33.882;151.134;2022-10-30T05:49:03;21.10;99.90
16392;DHT22;8305;-33.882;151.134;2022-10-30T05:51:33;21.10;99.90
16392;DHT22;8305;-33.882;151.134;2022-10-30T05:54:06;21.10;99.90
16392;DHT22;8305;-33.882;151.134;2022-10-30T05:56:37;20.90;99.90
16392;DHT22;8305;-33.882;151.134;2022-10-30T05:59:08;20.80;99.90
16392;DHT22;8305;-33.882;151.134;2022-10-30T06:01:39;20.70;99.90
16392;DHT22;8305;-33.882;151.134;2022-10-30T06:04:09;20.70;99.90
16392;DHT22;8305;-33.882;151.134;2022-10-30T06:06:40;20.70;99.90
16392;DHT22;8305;-33.882;151.134;2022-10-30T06:09:13;20.70;99.90
16392;DHT22;8305;-33.882;151.134;2022-10-30T06:11:43;20.60;99.90
16392;DHT22;8305;-33.882;151.134;2022-10-30T06:14:14;20.50;99.90
16392;DHT22;8305;-33.882;151.134;2022-10-30T06:16:45;20.50;99.90
16392;DHT22;8305;-33.882;151.134;2022-10-30T06:19:16;20.60;99.90
16392;DHT22;8305;-33.882;151.134;2022-10-30T06:21:46;20.50;99.90
16392;DHT22;8305;-33.882;151.134;2022-10-30T06:24:19;20.50;99.90
16392;DHT22;8305;-33.882;151.134;2022-10-30T06:26:50;20.60;99.90
16392;DHT22;8305;-33.882;151.134;2022-10-30T06:29:20;20.60;99.90
16392;DHT22;8305;-33.882;151.134;2022-10-30T06:31:54;20.60;99.90
16392;DHT22;8305;-33.882;151.134;2022-10-30T06:34:24;20.60;99.90
16392;DHT22;8305;-33.882;151.134;2022-10-30T06:36:55;20.40;99.90
16392;DHT22;8305;-33.882;151.134;2022-10-30T06:39:28;20.40;99.90
16392;DHT22;8305;-33.882;151.134;2022-10-30T06:42:02;20.40;99.90
16392;DHT22;8305;-33.882;151.134;2022-10-30T06:44:32;20.40;99.90
16392;DHT22;8305;-33.882;151.134;2022-10-30T06:47:03;20.30;99.90
16392;DHT22;8305;-33.882;151.134;2022-10-30T06:49:34;20.40;99.90
16392;DHT22;8305;-33.882;151.134;2022-10-30T06:52:05;20.40;99.90
16392;DHT22;8305;-33.882;151.134;2022-10-30T06:54:37;20.40;99.90
16392;DHT22;8305;-33.882;151.134;2022-10-30T06:57:08;20.40;99.90
16392;DHT22;8305;-33.882;151.134;2022-10-30T06:59:39;20.40;99.90
16392;DHT22;8305;-33.882;151.134;2022-10-30T07:02:10;20.20;99.90
16392;DHT22;8305;-33.882;151.134;2022-10-30T07:04:41;20.10;99.90
16392;DHT22;8305;-33.882;151.134;2022-10-30T07:07:12;19.90;99.90
16392;DHT22;8305;-33.882;151.134;2022-10-30T07:09:45;19.80;99.90
16392;DHT22;8305;-33.882;151.134;2022-10-30T07:12:16;19.80;99.90
16392;DHT22;8305;-33.882;151.134;2022-10-30T07:14:47;19.80;99.90
16392;DHT22;8305;-33.882;151.134;2022-10-30T07:17:17;19.80;99.90
16392;DHT22;8305;-33.882;151.134;2022-10-30T07:19:48;19.80;99.90
16392;DHT22;8305;-33.882;151.134;2022-10-30T07:22:19;19.90;99.90
16392;DHT22;8305;-33.882;151.134;2022-10-30T07:24:51;19.90;99.90
16392;DHT22;8305;-33.882;151.134;2022-10-30T07:27:22;19.90;99.90
16392;DHT22;8305;-33.882;151.134;2022-10-30T07:29:53;19.90;99.90
16392;DHT22;8305;-33.882;151.134;2022-10-30T07:32:24;19.80;99.90
16392;DHT22;8305;-33.882;151.134;2022-10-30T07:34:55;19.70;99.90
16392;DHT22;8305;-33.882;151.134;2022-10-30T07:37:25;19.60;99.90
16392;DHT22;8305;-33.882;151.134;2022-10-30T07:40:00;19.50;99.90
16392;DHT22;8305;-33.882;151.134;2022-10-30T07:42:31;19.40;99.90
16392;DHT22;8305;-33.882;151.134;2022-10-30T07:45:02;19.40;99.90
16392;DHT22;8305;-33.882;151.134;2022-10-30T07:47:33;19.30;99.90
16392;DHT22;8305;-33.882;151.134;2022-10-30T07:50:08;19.30;99.90
16392;DHT22;8305;-33.882;151.134;2022-10-30T07:52:39;19.30;99.90
16392;DHT22;8305;-33.882;151.134;2022-10-30T07:55:12;19.20;99.90
16392;DHT22;8305;-33.882;151.134;2022-10-30T07:57:43;19.20;99.90
16392;DHT22;8305;-33.882;151.134;2022-10-30T08:00:14;19.20;99.90
16392;DHT22;8305;-33.882;151.134;2022-10-30T08:02:49;19.10;99.90
16392;DHT22;8305;-33.882;151.134;2022-10-30T08:05:20;19.00;99.90
16392;DHT22;8305;-33.882;151.134;2022-10-30T08:07:51;19.00;99.90
16392;DHT22;8305;-33.882;151.134;2022-10-30T08:10:23;18.90;99.90
16392;DHT22;8305;-33.882;151.134;2022-10-30T08:12:54;18.90;99.90
16392;DHT22;8305;-33.882;151.134;2022-10-30T08:15:25;18.90;99.90
16392;DHT22;8305;-33.882;151.134;2022-10-30T08:17:56;18.80;99.90
16392;DHT22;8305;-33.882;151.134;2022-10-30T08:20:26;18.80;99.90
16392;DHT22;8305;-33.882;151.134;2022-10-30T08:22:57;18.80;99.90
16392;DHT22;8305;-33.882;151.134;2022-10-30T08:25:31;18.70;99.90
16392;DHT22;8305;-33.882;151.134;2022-10-30T08:28:02;18.70;99.90
16392;DHT22;8305;-33.882;151.134;2022-10-30T08:30:34;18.70;99.90
16392;DHT22;8305;-33.882;151.134;2022-10-30T08:33:08;18.70;99.90
16392;DHT22;8305;-33.882;151.134;2022-10-30T08:35:47;18.60;99.90
16392;DHT22;8305;-33.882;151.134;2022-10-30T08:38:18;18.60;99.90
16392;DHT22;8305;-33.882;151.134;2022-10-30T08:40:51;18.60;99.90
16392;DHT22;8305;-33.882;151.134;2022-10-30T08:43:22;18.60;99.90
16392;DHT22;8305;-33.882;151.134;2022-10-30T08:45:53;18.50;99.90
16392;DHT22;8305;-33.882;151.134;2022-10-30T08:48:26;18.50;99.90
16392;DHT22;8305;-33.882;151.134;2022-10-30T08:50:58;18.50;99.90
16392;DHT22;8305;-33.882;151.134;2022-10-30T08:53:29;18.50;99.90
16392;DHT22;8305;-33.882;151.134;2022-10-30T08:56:02;18.40;99.90
16392;DHT22;8305;-33.882;151.134;2022-10-30T08:58:32;18.40;99.90
16392;DHT22;8305;-33.882;151.134;2022-10-30T09:01:03;18.40;99.90
16392;DHT22;8305;-33.882;151.134;2022-10-30T09:03:34;18.40;99.90
16392;DHT22;8305;-33.882;151.134;2022-10-30T09:06:06;18.40;99.90
16392;DHT22;8305;-33.882;151.134;2022-10-30T09:08:36;18.50;99.90
16392;DHT22;8305;-33.882;151.134;2022-10-30T09:11:09;18.50;99.90
16392;DHT22;8305;-33.882;151.134;2022-10-30T09:13:41;18.40;99.90
16392;DHT22;8305;-33.882;151.134;2022-10-30T09:16:11;18.50;99.90
16392;DHT22;8305;-33.882;151.134;2022-10-30T09:18:42;18.50;99.90
16392;DHT22;8305;-33.882;151.134;2022-10-30T09:21:13;18.50;99.90
16392;DHT22;8305;-33.882;151.134;2022-10-30T09:23:44;18.50;99.90
16392;DHT22;8305;-33.882;151.134;2022-10-30T09:26:17;18.40;99.90
16392;DHT22;8305;-33.882;151.134;2022-10-30T09:28:47;18.40;99.90
16392;DHT22;8305;-33.882;151.134;2022-10-30T09:31:19;18.40;99.90
16392;DHT22;8305;-33.882;151.134;2022-10-30T09:33:49;18.40;99.90
16392;DHT22;8305;-33.882;151.134;2022-10-30T09:36:20;18.40;99.90
16392;DHT22;8305;-33.882;151.134;2022-10-30T09:38:51;18.40;99.90
16392;DHT22;8305;-33.882;151.134;2022-10-30T09:41:41;18.40;99.90
16392;DHT22;8305;-33.882;151.134;2022-10-30T09:44:26;18.40;99.90
16392;DHT22;8305;-33.882;151.134;2022-10-30T09:47:05;18.40;99.90
16392;DHT22;8305;-33.882;151.134;2022-10-30T09:52:50;18.40;99.90
16392;DHT22;8305;-33.882;151.134;2022-10-30T09:55:33;18.40;99.90
16392;DHT22;8305;-33.882;151.134;2022-10-30T09:58:17;18.50;99.90
16392;DHT22;8305;-33.882;151.134;2022-10-30T10:00:53;18.50;99.90
16392;DHT22;8305;-33.882;151.134;2022-10-30T10:03:37;18.50;99.90
16392;DHT22;8305;-33.882;151.134;2022-10-30T10:06:14;18.50;99.90
16392;DHT22;8305;-33.882;151.134;2022-10-30T10:08:49;18.50;99.90
16392;DHT22;8305;-33.882;151.134;2022-10-30T10:11:26;18.50;99.90
16392;DHT22;8305;-33.882;151.134;2022-10-30T10:14:03;18.50;99.90
16392;DHT22;8305;-33.882;151.134;2022-10-30T10:16:39;18.50;99.90
16392;DHT22;8305;-33.882;151.134;2022-10-30T10:19:15;18.50;99.90
16392;DHT22;8305;-33.882;151.134;2022-10-30T10:21:52;18.50;99.90
16392;DHT22;8305;-33.882;151.134;2022-10-30T10:24:27;18.50;99.90
16392;DHT22;8305;-33.882;151.134;2022-10-30T10:27:03;18.50;99.90
16392;DHT22;8305;-33.882;151.134;2022-10-30T10:29:49;18.50;99.90
16392;DHT22;8305;-33.882;151.134;2022-10-30T10:33:02;18.50;99.90
16392;DHT22;8305;-33.882;151.134;2022-10-30T10:35:52;18.50;99.90
16392;DHT22;8305;-33.882;151.134;2022-10-30T10:38:40;18.50;99.90
16392;DHT22;8305;-33.882;151.134;2022-10-30T10:41:18;18.50;99.90
16392;DHT22;8305;-33.882;151.134;2022-10-30T10:44:05;18.50;99.90
16392;DHT22;8305;-33.882;151.134;2022-10-30T10:46:55;18.50;99.90
16392;DHT22;8305;-33.882;151.134;2022-10-30T10:49:39;18.50;99.90
16392;DHT22;8305;-33.882;151.134;2022-10-30T10:52:15;18.50;99.90
16392;DHT22;8305;-33.882;151.134;2022-10-30T10:54:51;18.50;99.90
16392;DHT22;8305;-33.882;151.134;2022-10-30T10:57:28;18.50;99.90
16392;DHT22;8305;-33.882;151.134;2022-10-30T11:00:03;18.50;99.90
16392;DHT22;8305;-33.882;151.134;2022-10-30T11:02:39;18.40;99.90
16392;DHT22;8305;-33.882;151.134;2022-10-30T11:05:19;18.50;99.90
16392;DHT22;8305;-33.882;151.134;2022-10-30T11:07:51;18.50;99.90
16392;DHT22;8305;-33.882;151.134;2022-10-30T11:10:22;18.50;99.90
16392;DHT22;8305;-33.882;151.134;2022-10-30T11:12:53;18.50;99.90
16392;DHT22;8305;-33.882;151.134;2022-10-30T11:15:36;18.50;99.90
16392;DHT22;8305;-33.882;151.134;2022-10-30T11:18:12;18.40;99.90
16392;DHT22;8305;-33.882;151.134;2022-10-30T11:20:47;18.50;99.90
16392;DHT22;8305;-33.882;151.134;2022-10-30T11:23:37;18.40;99.90
16392;DHT22;8305;-33.882;151.134;2022-10-30T11:26:31;18.40;99.90
16392;DHT22;8305;-33.882;151.134;2022-10-30T11:29:08;18.50;99.90
16392;DHT22;8305;-33.882;151.134;2022-10-30T11:31:42;18.40;99.90
16392;DHT22;8305;-33.882;151.134;2022-10-30T11:34:24;18.40;99.90
16392;DHT22;8305;-33.882;151.134;2022-10-30T11:36:58;18.40;99.90
16392;DHT22;8305;-33.882;151.134;2022-10-30T11:39:30;18.40;99.90
16392;DHT22;8305;-33.882;151.134;2022-10-30T11:42:05;18.40;99.90
16392;DHT22;8305;-33.882;151.134;2022-10-30T11:44:37;18.40;99.90
16392;DHT22;8305;-33.882;151.134;2022-10-30T11:47:11;18.40;99.90
16392;DHT22;8305;-33.882;151.134;2022-10-30T11:49:49;18.40;99.90
16392;DHT22;8305;-33.882;151.134;2022-10-30T11:52:22;18.40;99.90
16392;DHT22;8305;-33.882;151.134;2022-10-30T11:54:55;18.40;99.90
16392;DHT22;8305;-33.882;151.134;2022-10-30T11:57:32;18.40;99.90
16392;DHT22;8305;-33.882;151.134;2022-10-30T12:00:07;18.40;99.90
16392;DHT22;8305;-33.882;151.134;2022-10-30T12:02:44;18.40;99.90
16392;DHT22;8305;-33.882;151.134;2022-10-30T12:05:40;18.40;99.90
16392;DHT22;8305;-33.882;151.134;2022-10-30T12:08:19;18.40;99.90
16392;DHT22;8305;-33.882;151.134;2022-10-30T12:11:00;18.30;99.90
16392;DHT22;8305;-33.882;151.134;2022-10-30T12:13:36;18.30;99.90
16392;DHT22;8305;-33.882;151.134;2022-10-30T12:16:18;18.30;99.90
16392;DHT22;8305;-33.882;151.134;2022-10-30T12:19:00;18.40;99.90
16392;DHT22;8305;-33.882;151.134;2022-10-30T12:21:38;18.30;99.90
16392;DHT22;8305;-33.882;151.134;2022-10-30T12:24:15;18.30;99.90
16392;DHT22;8305;-33.882;151.134;2022-10-30T12:26:49;18.30;99.90
16392;DHT22;8305;-33.882;151.134;2022-10-30T12:29:23;18.30;99.90
16392;DHT22;8305;-33.882;151.134;2022-10-30T12:31:59;18.30;99.90
16392;DHT22;8305;-33.882;151.134;2022-10-30T12:34:37;18.30;99.90
16392;DHT22;8305;-33.882;151.134;2022-10-30T12:37:16;18.30;99.90
16392;DHT22;8305;-33.882;151.134;2022-10-30T12:39:59;18.30;99.90
16392;DHT22;8305;-33.882;151.134;2022-10-30T12:42:36;18.30;99.90
16392;DHT22;8305;-33.882;151.134;2022-10-30T12:45:13;18.30;99.90
16392;DHT22;8305;-33.882;151.134;2022-10-30T12:47:49;18.30;99.90
16392;DHT22;8305;-33.882;151.134;2022-10-30T12:50:24;18.30;99.90
16392;DHT22;8305;-33.882;151.134;2022-10-30T12:53:04;18.30;99.90
16392;DHT22;8305;-33.882;151.134;2022-10-30T12:55:39;18.30;99.90
16392;DHT22;8305;-33.882;151.134;2022-10-30T12:58:20;18.30;99.90
16392;DHT22;8305;-33.882;151.134;2022-10-30T13:00:57;18.30;99.90
16392;DHT22;8305;-33.882;151.134;2022-10-30T13:03:34;18.30;99.90
16392;DHT22;8305;-33.882;151.134;2022-10-30T13:06:11;18.30;99.90
16392;DHT22;8305;-33.882;151.134;2022-10-30T13:08:53;18.30;99.90
16392;DHT22;8305;-33.882;151.134;2022-10-30T13:11:35;18.30;99.90
16392;DHT22;8305;-33.882;151.134;2022-10-30T13:14:13;18.30;99.90
16392;DHT22;8305;-33.882;151.134;2022-10-30T13:16:45;18.30;99.90
16392;DHT22;8305;-33.882;151.134;2022-10-30T13:19:16;18.30;99.90
16392;DHT22;8305;-33.882;151.134;2022-10-30T13:21:52;18.30;99.90
16392;DHT22;8305;-33.882;151.134;2022-10-30T13:24:34;18.30;99.90
16392;DHT22;8305;-33.882;151.134;2022-10-30T13:27:11;18.30;99.90
16392;DHT22;8305;-33.882;151.134;2022-10-30T13:29:47;18.30;99.90
16392;DHT22;8305;-33.882;151.134;2022-10-30T13:32:27;18.30;99.90
16392;DHT22;8305;-33.882;151.134;2022-10-30T13:35:08;18.30;99.90
16392;DHT22;8305;-33.882;151.134;2022-10-30T13:37:47;18.30;99.90
16392;DHT22;8305;-33.882;151.134;2022-10-30T13:40:25;18.20;99.90
16392;DHT22;8305;-33.882;151.134;2022-10-30T13:43:11;18.20;99.90
16392;DHT22;8305;-33.882;151.134;2022-10-30T13:51:44;18.20;99.90
16392;DHT22;8305;-33.882;151.134;2022-10-30T13:54:21;18.20;99.90
16392;DHT22;8305;-33.882;151.134;2022-10-30T13:56:55;18.20;99.90
16392;DHT22;8305;-33.882;151.134;2022-10-30T13:59:49;18.20;99.90
16392;DHT22;8305;-33.882;151.134;2022-10-30T14:02:32;18.20;99.90
16392;DHT22;8305;-33.882;151.134;2022-10-30T14:05:14;18.20;99.90
16392;DHT22;8305;-33.882;151.134;2022-10-30T14:07:48;18.20;99.90
16392;DHT22;8305;-33.882;151.134;2022-10-30T14:10:30;18.20;99.90
16392;DHT22;8305;-33.882;151.134;2022-10-30T14:13:20;18.20;99.90
16392;DHT22;8305;-33.882;151.134;2022-10-30T14:15:55;18.20;99.90
16392;DHT22;8305;-33.882;151.134;2022-10-30T14:18:43;18.20;99.90
16392;DHT22;8305;-33.882;151.134;2022-10-30T14:21:38;18.10;99.90
16392;DHT22;8305;-33.882;151.134;2022-10-30T14:24:22;18.10;99.90
16392;DHT22;8305;-33.882;151.134;2022-10-30T14:27:07;18.20;99.90
16392;DHT22;8305;-33.882;151.134;2022-10-30T14:29:44;18.10;99.90
16392;DHT22;8305;-33.882;151.134;2022-10-30T14:32:41;18.10;99.90
16392;DHT22;8305;-33.882;151.134;2022-10-30T14:35:38;18.10;99.90
16392;DHT22;8305;-33.882;151.134;2022-10-30T14:38:26;18.10;99.90
16392;DHT22;8305;-33.882;151.134;2022-10-30T14:41:24;18.20;99.90
16392;DHT22;8305;-33.882;151.134;2022-10-30T14:44:26;18.10;99.90
16392;DHT22;8305;-33.882;151.134;2022-10-30T14:47:11;18.10;99.90
16392;DHT22;8305;-33.882;151.134;2022-10-30T14:49:48;18.10;99.90
16392;DHT22;8305;-33.882;151.134;2022-10-30T14:52:34;18.10;99.90
16392;DHT22;8305;-33.882;151.134;2022-10-30T14:55:29;18.00;99.90
16392;DHT22;8305;-33.882;151.134;2022-10-30T14:58:24;18.10;99.90
16392;DHT22;8305;-33.882;151.134;2022-10-30T15:01:19;18.10;99.90
16392;DHT22;8305;-33.882;151.134;2022-10-30T15:04:02;18.10;99.90
16392;DHT22;8305;-33.882;151.134;2022-10-30T15:06:42;18.00;99.90
16392;DHT22;8305;-33.882;151.134;2022-10-30T15:09:22;18.00;99.90
16392;DHT22;8305;-33.882;151.134;2022-10-30T15:12:19;18.10;99.90
16392;DHT22;8305;-33.882;151.134;2022-10-30T15:14:55;18.10;99.90
16392;DHT22;8305;-33.882;151.134;2022-10-30T15:17:30;18.10;99.90
16392;DHT22;8305;-33.882;151.134;2022-10-30T15:20:07;18.10;99.90
16392;DHT22;8305;-33.882;151.134;2022-10-30T15:22:43;18.00;99.90
16392;DHT22;8305;-33.882;151.134;2022-10-30T15:25:19;18.00;99.90
16392;DHT22;8305;-33.882;151.134;2022-10-30T15:27:51;18.00;99.90
16392;DHT22;8305;-33.882;151.134;2022-10-30T15:30:24;18.00;99.90
16392;DHT22;8305;-33.882;151.134;2022-10-30T15:32:55;18.00;99.90
16392;DHT22;8305;-33.882;151.134;2022-10-30T15:35:28;18.00;99.90
16392;DHT22;8305;-33.882;151.134;2022-10-30T15:38:00;18.00;99.90
16392;DHT22;8305;-33.882;151.134;2022-10-30T15:40:32;18.00;99.90
16392;DHT22;8305;-33.882;151.134;2022-10-30T15:43:04;18.00;99.90
16392;DHT22;8305;-33.882;151.134;2022-10-30T15:45:37;18.00;99.90
16392;DHT22;8305;-33.882;151.134;2022-10-30T15:48:16;18.00;99.90
16392;DHT22;8305;-33.882;151.134;2022-10-30T15:50:59;18.00;99.90
16392;DHT22;8305;-33.882;151.134;2022-10-30T15:53:35;18.00;99.90
16392;DHT22;8305;-33.882;151.134;2022-10-30T15:56:11;18.00;99.90
16392;DHT22;8305;-33.882;151.134;2022-10-30T15:58:49;18.00;99.90
16392;DHT22;8305;-33.882;151.134;2022-10-30T16:01:26;18.00;99.90
16392;DHT22;8305;-33.882;151.134;2022-10-30T16:03:57;18.00;99.90